sensor_id;sensor_type;location;lat;lon;timestamp;temperature;humidity
78490;DHT22;67776;52.012;4.736;2023-07-08T00:00:42;20.95;58.28
78490;DHT22;67776;52.012;4.736;2023-07-08T00:03:07;20.90;58.86
78490;DHT22;67776;52.012;4.736;2023-07-08T00:05:33;20.93;58.88
78490;DHT22;67776;52.012;4.736;2023-07-08T00:07:59;20.79;59.01
78490;DHT22;67776;52.012;4.736;2023-07-08T00:10:26;20.88;58.72
78490;DHT22;67776;52.012;4.736;2023-07-08T00:12:52;20.82;59.11
78490;DHT22;67776;52.012;4.736;2023-07-08T00:15:21;20.75;59.76
78490;DHT22;67776;52.012;4.736;2023-07-08T00:17:46;20.75;59.45
78490;DHT22;67776;52.012;4.736;2023-07-08T00:20:36;20.75;59.39
78490;DHT22;67776;52.012;4.736;2023-07-08T00:23:02;20.73;59.41
78490;DHT22;67776;52.012;4.736;2023-07-08T00:25:28;20.80;59.59
78490;DHT22;67776;52.012;4.736;2023-07-08T00:27:54;20.75;59.46
78490;DHT22;67776;52.012;4.736;2023-07-08T00:30:27;20.73;59.41
78490;DHT22;67776;52.012;4.736;2023-07-08T00:32:56;20.78;59.30
78490;DHT22;67776;52.012;4.736;2023-07-08T00:35:39;20.73;59.39
78490;DHT22;67776;52.012;4.736;2023-07-08T00:38:15;20.73;59.36
78490;DHT22;67776;52.012;4.736;2023-07-08T00:43:36;20.49;60.63
78490;DHT22;67776;52.012;4.736;2023-07-08T00:48:56;20.64;60.25
78490;DHT22;67776;52.012;4.736;2023-07-08T00:51:23;20.51;61.07
78490;DHT22;67776;52.012;4.736;2023-07-08T00:53:49;20.54;60.94
78490;DHT22;67776;52.012;4.736;2023-07-08T00:56:23;20.58;61.06
78490;DHT22;67776;52.012;4.736;2023-07-08T01:01:25;20.37;61.60
78490;DHT22;67776;52.012;4.736;2023-07-08T01:04:02;20.34;61.44
78490;DHT22;67776;52.012;4.736;2023-07-08T01:06:32;20.43;60.81
78490;DHT22;67776;52.012;4.736;2023-07-08T01:09:02;20.17;61.42
78490;DHT22;67776;52.012;4.736;2023-07-08T01:11:28;20.10;61.57
78490;DHT22;67776;52.012;4.736;2023-07-08T01:13:54;20.13;60.69
78490;DHT22;67776;52.012;4.736;2023-07-08T01:16:20;20.14;60.89
78490;DHT22;67776;52.012;4.736;2023-07-08T01:18:46;20.20;60.51
78490;DHT22;67776;52.012;4.736;2023-07-08T01:21:35;20.01;60.91
78490;DHT22;67776;52.012;4.736;2023-07-08T01:24:03;19.90;61.44
78490;DHT22;67776;52.012;4.736;2023-07-08T01:26:31;19.94;61.20
78490;DHT22;67776;52.012;4.736;2023-07-08T01:28:57;20.01;60.84
78490;DHT22;67776;52.012;4.736;2023-07-08T01:31:23;20.10;60.85
78490;DHT22;67776;52.012;4.736;2023-07-08T01:33:49;20.12;60.52
78490;DHT22;67776;52.012;4.736;2023-07-08T01:36:16;20.12;60.98
78490;DHT22;67776;52.012;4.736;2023-07-08T01:38:43;19.89;61.52
78490;DHT22;67776;52.012;4.736;2023-07-08T01:41:14;19.83;62.26
78490;DHT22;67776;52.012;4.736;2023-07-08T01:43:40;19.86;61.94
78490;DHT22;67776;52.012;4.736;2023-07-08T01:46:11;19.80;62.03
78490;DHT22;67776;52.012;4.736;2023-07-08T01:48:40;19.93;61.48
78490;DHT22;67776;52.012;4.736;2023-07-08T01:51:07;19.96;61.37
78490;DHT22;67776;52.012;4.736;2023-07-08T01:53:34;19.86;61.58
78490;DHT22;67776;52.012;4.736;2023-07-08T01:56:00;19.76;62.03
78490;DHT22;67776;52.012;4.736;2023-07-08T01:58:26;19.70;62.20
78490;DHT22;67776;52.012;4.736;2023-07-08T02:00:53;19.72;62.08
78490;DHT22;67776;52.012;4.736;2023-07-08T02:03:19;19.70;62.20
78490;DHT22;67776;52.012;4.736;2023-07-08T02:05:45;19.55;62.43
78490;DHT22;67776;52.012;4.736;2023-07-08T02:08:10;19.47;62.88
78490;DHT22;67776;52.012;4.736;2023-07-08T02:10:38;19.55;62.66
78490;DHT22;67776;52.012;4.736;2023-07-08T02:13:04;19.45;62.78
78490;DHT22;67776;52.012;4.736;2023-07-08T02:15:30;19.47;62.98
78490;DHT22;67776;52.012;4.736;2023-07-08T02:17:55;19.28;63.23
78490;DHT22;67776;52.012;4.736;2023-07-08T02:20:21;19.36;63.54
78490;DHT22;67776;52.012;4.736;2023-07-08T02:22:46;19.28;63.86
78490;DHT22;67776;52.012;4.736;2023-07-08T02:25:12;19.16;64.12
78490;DHT22;67776;52.012;4.736;2023-07-08T02:27:38;19.13;64.17
78490;DHT22;67776;52.012;4.736;2023-07-08T02:30:04;19.21;64.09
78490;DHT22;67776;52.012;4.736;2023-07-08T02:32:29;19.25;63.88
78490;DHT22;67776;52.012;4.736;2023-07-08T02:34:54;19.30;63.86
78490;DHT22;67776;52.012;4.736;2023-07-08T02:37:20;19.18;64.08
78490;DHT22;67776;52.012;4.736;2023-07-08T02:39:45;19.24;64.10
78490;DHT22;67776;52.012;4.736;2023-07-08T02:42:10;19.24;64.28
78490;DHT22;67776;52.012;4.736;2023-07-08T02:44:36;19.27;64.44
78490;DHT22;67776;52.012;4.736;2023-07-08T02:47:01;19.16;64.58
78490;DHT22;67776;52.012;4.736;2023-07-08T02:49:27;19.16;64.70
78490;DHT22;67776;52.012;4.736;2023-07-08T02:51:53;19.13;64.99
78490;DHT22;67776;52.012;4.736;2023-07-08T02:54:18;18.97;65.58
78490;DHT22;67776;52.012;4.736;2023-07-08T02:56:43;19.07;65.76
78490;DHT22;67776;52.012;4.736;2023-07-08T02:59:09;19.00;65.75
78490;DHT22;67776;52.012;4.736;2023-07-08T03:01:34;19.04;65.11
78490;DHT22;67776;52.012;4.736;2023-07-08T03:04:10;18.93;66.26
78490;DHT22;67776;52.012;4.736;2023-07-08T03:06:43;19.00;65.64
78490;DHT22;67776;52.012;4.736;2023-07-08T03:09:10;18.96;65.69
78490;DHT22;67776;52.012;4.736;2023-07-08T03:11:37;18.97;65.83
78490;DHT22;67776;52.012;4.736;2023-07-08T03:14:04;18.95;65.83
78490;DHT22;67776;52.012;4.736;2023-07-08T03:16:29;18.77;66.79
78490;DHT22;67776;52.012;4.736;2023-07-08T03:18:55;18.76;66.81
78490;DHT22;67776;52.012;4.736;2023-07-08T03:21:20;18.76;66.37
78490;DHT22;67776;52.012;4.736;2023-07-08T03:23:48;18.76;66.41
78490;DHT22;67776;52.012;4.736;2023-07-08T03:26:24;18.75;66.39
78490;DHT22;67776;52.012;4.736;2023-07-08T03:28:50;18.72;66.89
78490;DHT22;67776;52.012;4.736;2023-07-08T03:31:16;18.70;66.60
78490;DHT22;67776;52.012;4.736;2023-07-08T03:33:42;18.69;66.53
78490;DHT22;67776;52.012;4.736;2023-07-08T03:36:12;18.68;66.76
78490;DHT22;67776;52.012;4.736;2023-07-08T03:38:38;18.66;66.87
78490;DHT22;67776;52.012;4.736;2023-07-08T03:41:04;18.44;66.94
78490;DHT22;67776;52.012;4.736;2023-07-08T03:43:30;18.55;67.40
78490;DHT22;67776;52.012;4.736;2023-07-08T03:45:55;18.49;68.00
78490;DHT22;67776;52.012;4.736;2023-07-08T03:48:23;18.53;67.11
78490;DHT22;67776;52.012;4.736;2023-07-08T03:50:49;18.49;68.03
78490;DHT22;67776;52.012;4.736;2023-07-08T03:53:14;18.52;67.79
78490;DHT22;67776;52.012;4.736;2023-07-08T03:55:40;18.52;67.93
78490;DHT22;67776;52.012;4.736;2023-07-08T03:58:05;18.42;68.11
78490;DHT22;67776;52.012;4.736;2023-07-08T04:00:30;18.37;69.12
78490;DHT22;67776;52.012;4.736;2023-07-08T04:02:56;18.38;69.18
78490;DHT22;67776;52.012;4.736;2023-07-08T04:05:22;18.10;72.10
78490;DHT22;67776;52.012;4.736;2023-07-08T04:07:48;18.11;70.99
78490;DHT22;67776;52.012;4.736;2023-07-08T04:10:14;18.07;71.36
78490;DHT22;67776;52.012;4.736;2023-07-08T04:12:40;18.18;69.61
78490;DHT22;67776;52.012;4.736;2023-07-08T04:15:08;18.24;69.21
78490;DHT22;67776;52.012;4.736;2023-07-08T04:17:47;18.30;69.14
78490;DHT22;67776;52.012;4.736;2023-07-08T04:20:16;18.33;69.11
78490;DHT22;67776;52.012;4.736;2023-07-08T04:22:43;18.27;69.63
78490;DHT22;67776;52.012;4.736;2023-07-08T04:25:11;18.20;68.93
78490;DHT22;67776;52.012;4.736;2023-07-08T04:27:37;18.27;69.40
78490;DHT22;67776;52.012;4.736;2023-07-08T04:30:04;18.33;68.91
78490;DHT22;67776;52.012;4.736;2023-07-08T04:32:30;18.37;69.23
78490;DHT22;67776;52.012;4.736;2023-07-08T04:34:55;18.27;69.38
78490;DHT22;67776;52.012;4.736;2023-07-08T04:37:21;18.35;69.10
78490;DHT22;67776;52.012;4.736;2023-07-08T04:39:46;18.42;68.79
78490;DHT22;67776;52.012;4.736;2023-07-08T04:42:14;18.47;68.71
78490;DHT22;67776;52.012;4.736;2023-07-08T04:44:41;18.58;68.08
78490;DHT22;67776;52.012;4.736;2023-07-08T04:47:06;18.51;68.85
78490;DHT22;67776;52.012;4.736;2023-07-08T04:49:34;18.61;68.12
78490;DHT22;67776;52.012;4.736;2023-07-08T04:52:00;18.44;69.36
78490;DHT22;67776;52.012;4.736;2023-07-08T04:54:27;18.56;68.66
78490;DHT22;67776;52.012;4.736;2023-07-08T04:56:52;18.52;68.48
78490;DHT22;67776;52.012;4.736;2023-07-08T04:59:21;18.55;68.46
78490;DHT22;67776;52.012;4.736;2023-07-08T05:01:46;18.68;68.09
78490;DHT22;67776;52.012;4.736;2023-07-08T05:04:16;18.76;67.75
78490;DHT22;67776;52.012;4.736;2023-07-08T05:06:42;18.75;68.32
78490;DHT22;67776;52.012;4.736;2023-07-08T05:09:08;18.59;67.87
78490;DHT22;67776;52.012;4.736;2023-07-08T05:11:35;18.65;67.90
78490;DHT22;67776;52.012;4.736;2023-07-08T05:14:01;18.73;68.33
78490;DHT22;67776;52.012;4.736;2023-07-08T05:16:27;18.69;67.85
78490;DHT22;67776;52.012;4.736;2023-07-08T05:18:52;18.68;67.87
78490;DHT22;67776;52.012;4.736;2023-07-08T05:21:19;18.70;68.47
78490;DHT22;67776;52.012;4.736;2023-07-08T05:23:45;18.79;68.23
78490;DHT22;67776;52.012;4.736;2023-07-08T05:26:11;18.80;68.01
78490;DHT22;67776;52.012;4.736;2023-07-08T05:28:36;18.97;67.98
78490;DHT22;67776;52.012;4.736;2023-07-08T05:31:02;18.92;68.06
78490;DHT22;67776;52.012;4.736;2023-07-08T05:33:29;18.95;68.32
78490;DHT22;67776;52.012;4.736;2023-07-08T05:35:55;18.96;68.19
78490;DHT22;67776;52.012;4.736;2023-07-08T05:38:20;19.16;67.70
78490;DHT22;67776;52.012;4.736;2023-07-08T05:40:49;19.20;68.34
78490;DHT22;67776;52.012;4.736;2023-07-08T05:43:16;19.28;67.67
78490;DHT22;67776;52.012;4.736;2023-07-08T05:45:41;19.31;68.21
78490;DHT22;67776;52.012;4.736;2023-07-08T05:48:07;19.41;68.06
78490;DHT22;67776;52.012;4.736;2023-07-08T05:50:32;19.42;68.07
78490;DHT22;67776;52.012;4.736;2023-07-08T05:52:57;19.28;68.20
78490;DHT22;67776;52.012;4.736;2023-07-08T05:55:23;19.32;67.90
78490;DHT22;67776;52.012;4.736;2023-07-08T05:57:48;19.42;68.50
78490;DHT22;67776;52.012;4.736;2023-07-08T06:00:14;19.45;67.98
78490;DHT22;67776;52.012;4.736;2023-07-08T06:02:39;19.51;68.13
78490;DHT22;67776;52.012;4.736;2023-07-08T06:05:04;19.57;68.15
78490;DHT22;67776;52.012;4.736;2023-07-08T06:07:30;19.57;67.50
78490;DHT22;67776;52.012;4.736;2023-07-08T06:09:57;19.69;67.63
78490;DHT22;67776;52.012;4.736;2023-07-08T06:12:22;19.72;67.09
78490;DHT22;67776;52.012;4.736;2023-07-08T06:14:48;19.83;67.06
78490;DHT22;67776;52.012;4.736;2023-07-08T06:17:13;19.87;67.41
78490;DHT22;67776;52.012;4.736;2023-07-08T06:19:38;20.00;66.59
78490;DHT22;67776;52.012;4.736;2023-07-08T06:22:04;20.03;66.64
78490;DHT22;67776;52.012;4.736;2023-07-08T06:24:29;20.12;66.43
78490;DHT22;67776;52.012;4.736;2023-07-08T06:26:55;20.18;66.32
78490;DHT22;67776;52.012;4.736;2023-07-08T06:29:20;20.28;66.02
78490;DHT22;67776;52.012;4.736;2023-07-08T06:31:46;20.41;65.89
78490;DHT22;67776;52.012;4.736;2023-07-08T06:34:11;20.44;65.36
78490;DHT22;67776;52.012;4.736;2023-07-08T06:36:36;20.49;65.57
78490;DHT22;67776;52.012;4.736;2023-07-08T06:39:02;20.58;65.12
78490;DHT22;67776;52.012;4.736;2023-07-08T06:41:28;20.71;64.61
78490;DHT22;67776;52.012;4.736;2023-07-08T06:43:53;20.71;65.39
78490;DHT22;67776;52.012;4.736;2023-07-08T06:46:19;20.82;64.04
78490;DHT22;67776;52.012;4.736;2023-07-08T06:48:44;20.86;63.34
78490;DHT22;67776;52.012;4.736;2023-07-08T06:51:10;20.97;63.73
78490;DHT22;67776;52.012;4.736;2023-07-08T06:53:35;21.03;63.75
78490;DHT22;67776;52.012;4.736;2023-07-08T06:56:00;21.06;63.66
78490;DHT22;67776;52.012;4.736;2023-07-08T06:58:27;21.16;63.79
78490;DHT22;67776;52.012;4.736;2023-07-08T07:00:53;21.24;63.33
78490;DHT22;67776;52.012;4.736;2023-07-08T07:03:18;21.28;63.08
78490;DHT22;67776;52.012;4.736;2023-07-08T07:05:44;21.33;63.08
78490;DHT22;67776;52.012;4.736;2023-07-08T07:08:09;21.40;62.66
78490;DHT22;67776;52.012;4.736;2023-07-08T07:10:35;21.45;62.84
78490;DHT22;67776;52.012;4.736;2023-07-08T07:13:00;21.59;62.54
78490;DHT22;67776;52.012;4.736;2023-07-08T07:15:26;21.62;62.02
78490;DHT22;67776;52.012;4.736;2023-07-08T07:17:51;21.61;62.57
78490;DHT22;67776;52.012;4.736;2023-07-08T07:20:16;21.66;62.57
78490;DHT22;67776;52.012;4.736;2023-07-08T07:22:42;21.72;63.42
78490;DHT22;67776;52.012;4.736;2023-07-08T07:25:08;21.83;62.57
78490;DHT22;67776;52.012;4.736;2023-07-08T07:27:33;21.83;62.95
78490;DHT22;67776;52.012;4.736;2023-07-08T07:29:58;21.92;62.60
78490;DHT22;67776;52.012;4.736;2023-07-08T07:32:25;21.96;63.02
78490;DHT22;67776;52.012;4.736;2023-07-08T07:34:51;22.05;62.38
78490;DHT22;67776;52.012;4.736;2023-07-08T07:37:19;22.13;62.32
78490;DHT22;67776;52.012;4.736;2023-07-08T07:39:45;22.30;62.67
78490;DHT22;67776;52.012;4.736;2023-07-08T07:42:12;22.40;62.93
78490;DHT22;67776;52.012;4.736;2023-07-08T07:44:38;22.52;62.17
78490;DHT22;67776;52.012;4.736;2023-07-08T07:47:07;22.55;62.48
78490;DHT22;67776;52.012;4.736;2023-07-08T07:49:33;22.72;62.28
78490;DHT22;67776;52.012;4.736;2023-07-08T07:51:59;22.76;61.74
78490;DHT22;67776;52.012;4.736;2023-07-08T07:54:24;22.92;61.27
78490;DHT22;67776;52.012;4.736;2023-07-08T07:56:50;23.12;61.73
78490;DHT22;67776;52.012;4.736;2023-07-08T07:59:15;23.09;60.83
78490;DHT22;67776;52.012;4.736;2023-07-08T08:01:40;23.19;61.17
78490;DHT22;67776;52.012;4.736;2023-07-08T08:04:10;23.28;59.78
78490;DHT22;67776;52.012;4.736;2023-07-08T08:06:36;23.42;59.84
78490;DHT22;67776;52.012;4.736;2023-07-08T08:09:02;23.61;60.87
78490;DHT22;67776;52.012;4.736;2023-07-08T08:11:28;23.75;59.65
78490;DHT22;67776;52.012;4.736;2023-07-08T08:13:53;23.85;59.10
78490;DHT22;67776;52.012;4.736;2023-07-08T08:16:20;23.98;57.92
78490;DHT22;67776;52.012;4.736;2023-07-08T08:18:45;24.06;58.97
78490;DHT22;67776;52.012;4.736;2023-07-08T08:21:10;23.98;58.41
78490;DHT22;67776;52.012;4.736;2023-07-08T08:23:36;24.12;58.53
78490;DHT22;67776;52.012;4.736;2023-07-08T08:26:02;24.30;58.06
78490;DHT22;67776;52.012;4.736;2023-07-08T08:28:27;24.47;58.21
78490;DHT22;67776;52.012;4.736;2023-07-08T08:30:52;24.49;57.83
78490;DHT22;67776;52.012;4.736;2023-07-08T08:33:19;24.56;57.71
78490;DHT22;67776;52.012;4.736;2023-07-08T08:35:44;24.94;58.52
78490;DHT22;67776;52.012;4.736;2023-07-08T08:38:10;24.96;55.03
78490;DHT22;67776;52.012;4.736;2023-07-08T08:40:35;25.20;56.43
78490;DHT22;67776;52.012;4.736;2023-07-08T08:43:23;25.20;55.23
78490;DHT22;67776;52.012;4.736;2023-07-08T08:46:02;25.27;55.50
78490;DHT22;67776;52.012;4.736;2023-07-08T08:48:31;25.80;54.96
78490;DHT22;67776;52.012;4.736;2023-07-08T08:51:06;25.97;53.83
78490;DHT22;67776;52.012;4.736;2023-07-08T08:53:33;26.16;54.65
78490;DHT22;67776;52.012;4.736;2023-07-08T08:56:05;26.44;52.98
78490;DHT22;67776;52.012;4.736;2023-07-08T08:58:42;26.76;51.28
78490;DHT22;67776;52.012;4.736;2023-07-08T09:01:13;27.15;51.75
78490;DHT22;67776;52.012;4.736;2023-07-08T09:03:48;27.08;51.65
78490;DHT22;67776;52.012;4.736;2023-07-08T09:06:24;27.18;52.81
78490;DHT22;67776;52.012;4.736;2023-07-08T09:08:51;27.32;51.81
78490;DHT22;67776;52.012;4.736;2023-07-08T09:11:39;27.54;50.16
78490;DHT22;67776;52.012;4.736;2023-07-08T09:14:17;27.47;49.28
78490;DHT22;67776;52.012;4.736;2023-07-08T09:19:35;28.33;49.46
78490;DHT22;67776;52.012;4.736;2023-07-08T09:22:07;28.53;48.55
78490;DHT22;67776;52.012;4.736;2023-07-08T09:27:07;28.77;47.91
78490;DHT22;67776;52.012;4.736;2023-07-08T09:29:33;28.97;45.84
78490;DHT22;67776;52.012;4.736;2023-07-08T09:31:59;29.34;46.45
78490;DHT22;67776;52.012;4.736;2023-07-08T09:34:39;29.72;45.53
78490;DHT22;67776;52.012;4.736;2023-07-08T09:37:26;29.52;44.49
78490;DHT22;67776;52.012;4.736;2023-07-08T09:39:54;29.73;44.47
78490;DHT22;67776;52.012;4.736;2023-07-08T09:42:22;29.19;47.30
78490;DHT22;67776;52.012;4.736;2023-07-08T09:44:55;29.04;47.05
78490;DHT22;67776;52.012;4.736;2023-07-08T09:47:24;29.79;45.27
78490;DHT22;67776;52.012;4.736;2023-07-08T09:49:52;30.73;43.81
78490;DHT22;67776;52.012;4.736;2023-07-08T09:52:17;29.38;45.45
78490;DHT22;67776;52.012;4.736;2023-07-08T09:54:42;30.21;44.56
78490;DHT22;67776;52.012;4.736;2023-07-08T09:59:59;30.83;44.62
78490;DHT22;67776;52.012;4.736;2023-07-08T10:02:32;31.15;44.14
78490;DHT22;67776;52.012;4.736;2023-07-08T10:05:12;30.98;44.12
78490;DHT22;67776;52.012;4.736;2023-07-08T10:07:38;31.04;45.13
78490;DHT22;67776;52.012;4.736;2023-07-08T10:10:08;31.55;43.79
78490;DHT22;67776;52.012;4.736;2023-07-08T10:12:37;31.48;44.72
78490;DHT22;67776;52.012;4.736;2023-07-08T10:16:06;31.24;44.17
78490;DHT22;67776;52.012;4.736;2023-07-08T10:18:00;31.52;43.23
78490;DHT22;67776;52.012;4.736;2023-07-08T10:20:34;31.58;43.71
78490;DHT22;67776;52.012;4.736;2023-07-08T10:25:44;31.93;43.47
78490;DHT22;67776;52.012;4.736;2023-07-08T10:31:17;31.93;41.12
78490;DHT22;67776;52.012;4.736;2023-07-08T10:39:06;30.90;42.97
78490;DHT22;67776;52.012;4.736;2023-07-08T10:41:57;31.57;42.86
78490;DHT22;67776;52.012;4.736;2023-07-08T10:44:36;31.68;42.78
78490;DHT22;67776;52.012;4.736;2023-07-08T10:47:13;31.01;41.53
78490;DHT22;67776;52.012;4.736;2023-07-08T10:52:42;32.27;43.14
78490;DHT22;67776;52.012;4.736;2023-07-08T11:05:42;33.53;37.73
78490;DHT22;67776;52.012;4.736;2023-07-08T11:08:22;32.79;40.15
78490;DHT22;67776;52.012;4.736;2023-07-08T11:10:56;32.44;39.98
78490;DHT22;67776;52.012;4.736;2023-07-08T11:13:25;33.02;39.41
78490;DHT22;67776;52.012;4.736;2023-07-08T11:15:54;31.79;39.92
78490;DHT22;67776;52.012;4.736;2023-07-08T11:18:33;32.82;43.03
78490;DHT22;67776;52.012;4.736;2023-07-08T11:21:12;32.82;38.44
78490;DHT22;67776;52.012;4.736;2023-07-08T11:24:06;33.86;37.79
78490;DHT22;67776;52.012;4.736;2023-07-08T11:26:46;34.19;39.92
78490;DHT22;67776;52.012;4.736;2023-07-08T11:29:19;34.50;36.56
78490;DHT22;67776;52.012;4.736;2023-07-08T11:31:46;34.70;37.53
78490;DHT22;67776;52.012;4.736;2023-07-08T11:34:12;34.68;37.89
78490;DHT22;67776;52.012;4.736;2023-07-08T11:36:39;33.68;39.75
78490;DHT22;67776;52.012;4.736;2023-07-08T11:39:25;33.72;40.43
78490;DHT22;67776;52.012;4.736;2023-07-08T11:41:53;34.58;40.08
78490;DHT22;67776;52.012;4.736;2023-07-08T11:44:20;34.37;38.56
78490;DHT22;67776;52.012;4.736;2023-07-08T11:46:55;34.27;36.74
78490;DHT22;67776;52.012;4.736;2023-07-08T11:49:21;35.93;34.67
78490;DHT22;67776;52.012;4.736;2023-07-08T11:51:48;35.36;34.13
78490;DHT22;67776;52.012;4.736;2023-07-08T11:54:20;35.36;34.22
78490;DHT22;67776;52.012;4.736;2023-07-08T11:59:19;35.47;35.22
78490;DHT22;67776;52.012;4.736;2023-07-08T12:02:02;36.08;34.86
78490;DHT22;67776;52.012;4.736;2023-07-08T12:04:32;34.91;35.55
78490;DHT22;67776;52.012;4.736;2023-07-08T12:10:05;36.46;33.93
78490;DHT22;67776;52.012;4.736;2023-07-08T12:12:35;36.83;34.49
78490;DHT22;67776;52.012;4.736;2023-07-08T12:15:15;35.73;35.56
78490;DHT22;67776;52.012;4.736;2023-07-08T12:17:41;36.60;34.09
78490;DHT22;67776;52.012;4.736;2023-07-08T12:20:17;38.29;32.96
78490;DHT22;67776;52.012;4.736;2023-07-08T12:22:44;38.16;31.78
78490;DHT22;67776;52.012;4.736;2023-07-08T12:25:15;35.80;34.44
78490;DHT22;67776;52.012;4.736;2023-07-08T12:27:42;35.35;36.00
78490;DHT22;67776;52.012;4.736;2023-07-08T12:30:10;36.50;35.25
78490;DHT22;67776;52.012;4.736;2023-07-08T12:32:36;37.54;33.63
78490;DHT22;67776;52.012;4.736;2023-07-08T12:35:01;36.05;35.46
78490;DHT22;67776;52.012;4.736;2023-07-08T12:37:32;35.50;38.32
78490;DHT22;67776;52.012;4.736;2023-07-08T12:39:58;36.38;37.10
78490;DHT22;67776;52.012;4.736;2023-07-08T12:42:30;37.32;33.60
78490;DHT22;67776;52.012;4.736;2023-07-08T12:44:56;35.84;34.95
78490;DHT22;67776;52.012;4.736;2023-07-08T12:47:22;35.54;34.93
78490;DHT22;67776;52.012;4.736;2023-07-08T12:49:47;36.05;36.49
78490;DHT22;67776;52.012;4.736;2023-07-08T12:52:23;35.78;35.48
78490;DHT22;67776;52.012;4.736;2023-07-08T12:54:49;36.29;37.02
78490;DHT22;67776;52.012;4.736;2023-07-08T12:57:15;35.67;35.81
78490;DHT22;67776;52.012;4.736;2023-07-08T12:59:41;36.31;35.14
78490;DHT22;67776;52.012;4.736;2023-07-08T13:02:15;36.88;34.21
78490;DHT22;67776;52.012;4.736;2023-07-08T13:04:45;36.42;34.53
78490;DHT22;67776;52.012;4.736;2023-07-08T13:07:38;36.56;33.23
78490;DHT22;67776;52.012;4.736;2023-07-08T13:10:06;36.97;31.41
78490;DHT22;67776;52.012;4.736;2023-07-08T13:12:34;39.18;29.84
78490;DHT22;67776;52.012;4.736;2023-07-08T13:15:04;38.06;31.64
78490;DHT22;67776;52.012;4.736;2023-07-08T13:17:30;37.77;32.85
78490;DHT22;67776;52.012;4.736;2023-07-08T13:19:56;38.37;30.67
78490;DHT22;67776;52.012;4.736;2023-07-08T13:22:22;38.47;30.20
78490;DHT22;67776;52.012;4.736;2023-07-08T13:24:49;37.63;30.63
78490;DHT22;67776;52.012;4.736;2023-07-08T13:27:25;40.53;27.86
78490;DHT22;67776;52.012;4.736;2023-07-08T13:29:56;40.00;29.13
78490;DHT22;67776;52.012;4.736;2023-07-08T13:32:30;36.97;31.11
78490;DHT22;67776;52.012;4.736;2023-07-08T13:34:56;35.74;32.47
78490;DHT22;67776;52.012;4.736;2023-07-08T13:37:22;37.27;33.08
78490;DHT22;67776;52.012;4.736;2023-07-08T13:39:52;37.06;32.13
78490;DHT22;67776;52.012;4.736;2023-07-08T13:42:18;38.72;30.65
78490;DHT22;67776;52.012;4.736;2023-07-08T13:44:48;37.86;31.45
78490;DHT22;67776;52.012;4.736;2023-07-08T13:47:25;38.48;30.36
78490;DHT22;67776;52.012;4.736;2023-07-08T13:49:56;38.27;30.52
78490;DHT22;67776;52.012;4.736;2023-07-08T13:52:23;37.63;30.18
78490;DHT22;67776;52.012;4.736;2023-07-08T13:54:58;35.94;32.46
78490;DHT22;67776;52.012;4.736;2023-07-08T13:57:34;37.41;31.35
78490;DHT22;67776;52.012;4.736;2023-07-08T13:59:59;39.51;29.70
78490;DHT22;67776;52.012;4.736;2023-07-08T14:02:27;40.99;27.22
78490;DHT22;67776;52.012;4.736;2023-07-08T14:04:54;37.13;30.58
78490;DHT22;67776;52.012;4.736;2023-07-08T14:07:26;36.49;33.74
78490;DHT22;67776;52.012;4.736;2023-07-08T14:09:51;36.91;36.32
78490;DHT22;67776;52.012;4.736;2023-07-08T14:12:17;37.45;36.76
78490;DHT22;67776;52.012;4.736;2023-07-08T14:14:43;38.17;31.32
78490;DHT22;67776;52.012;4.736;2023-07-08T14:17:14;36.82;30.57
78490;DHT22;67776;52.012;4.736;2023-07-08T14:19:42;37.74;31.18
78490;DHT22;67776;52.012;4.736;2023-07-08T14:24:40;37.63;29.78
78490;DHT22;67776;52.012;4.736;2023-07-08T14:27:09;37.94;30.32
78490;DHT22;67776;52.012;4.736;2023-07-08T14:29:38;37.32;36.24
78490;DHT22;67776;52.012;4.736;2023-07-08T14:32:04;35.26;33.35
78490;DHT22;67776;52.012;4.736;2023-07-08T14:34:29;37.00;36.98
78490;DHT22;67776;52.012;4.736;2023-07-08T14:36:55;38.18;32.35
78490;DHT22;67776;52.012;4.736;2023-07-08T14:39:20;37.22;30.28
78490;DHT22;67776;52.012;4.736;2023-07-08T14:41:48;39.55;29.12
78490;DHT22;67776;52.012;4.736;2023-07-08T14:44:20;38.48;30.26
78490;DHT22;67776;52.012;4.736;2023-07-08T14:46:46;39.44;27.79
78490;DHT22;67776;52.012;4.736;2023-07-08T14:49:15;37.80;30.17
78490;DHT22;67776;52.012;4.736;2023-07-08T14:51:41;38.07;29.19
78490;DHT22;67776;52.012;4.736;2023-07-08T14:54:08;36.95;32.05
78490;DHT22;67776;52.012;4.736;2023-07-08T14:56:33;38.10;28.92
78490;DHT22;67776;52.012;4.736;2023-07-08T14:58:58;37.68;30.27
78490;DHT22;67776;52.012;4.736;2023-07-08T15:01:24;36.65;31.21
78490;DHT22;67776;52.012;4.736;2023-07-08T15:03:53;36.98;31.39
78490;DHT22;67776;52.012;4.736;2023-07-08T15:06:19;36.84;30.73
78490;DHT22;67776;52.012;4.736;2023-07-08T15:08:45;37.22;29.46
78490;DHT22;67776;52.012;4.736;2023-07-08T15:11:11;37.94;29.34
78490;DHT22;67776;52.012;4.736;2023-07-08T15:13:37;36.18;32.24
78490;DHT22;67776;52.012;4.736;2023-07-08T15:16:04;36.69;31.15
78490;DHT22;67776;52.012;4.736;2023-07-08T15:18:30;34.87;35.63
78490;DHT22;67776;52.012;4.736;2023-07-08T15:20:58;34.60;34.11
78490;DHT22;67776;52.012;4.736;2023-07-08T15:23:24;33.98;40.57
78490;DHT22;67776;52.012;4.736;2023-07-08T15:25:49;33.77;35.51
78490;DHT22;67776;52.012;4.736;2023-07-08T15:28:20;33.48;38.13
78490;DHT22;67776;52.012;4.736;2023-07-08T15:30:48;33.24;40.32
78490;DHT22;67776;52.012;4.736;2023-07-08T15:33:15;33.12;43.87
78490;DHT22;67776;52.012;4.736;2023-07-08T15:35:41;33.19;45.35
78490;DHT22;67776;52.012;4.736;2023-07-08T15:38:11;32.48;44.49
78490;DHT22;67776;52.012;4.736;2023-07-08T15:40:38;33.19;41.07
78490;DHT22;67776;52.012;4.736;2023-07-08T15:43:03;33.26;43.66
78490;DHT22;67776;52.012;4.736;2023-07-08T15:45:33;32.98;44.16
78490;DHT22;67776;52.012;4.736;2023-07-08T15:47:59;33.00;46.48
78490;DHT22;67776;52.012;4.736;2023-07-08T15:50:26;33.20;47.87
78490;DHT22;67776;52.012;4.736;2023-07-08T15:52:53;33.12;40.62
78490;DHT22;67776;52.012;4.736;2023-07-08T15:55:36;33.34;42.99
78490;DHT22;67776;52.012;4.736;2023-07-08T15:58:08;33.22;37.78
78490;DHT22;67776;52.012;4.736;2023-07-08T16:00:37;33.17;43.01
78490;DHT22;67776;52.012;4.736;2023-07-08T16:03:11;32.95;40.11
78490;DHT22;67776;52.012;4.736;2023-07-08T16:05:37;33.07;43.70
78490;DHT22;67776;52.012;4.736;2023-07-08T16:08:03;33.00;45.37
78490;DHT22;67776;52.012;4.736;2023-07-08T16:10:28;33.14;43.77
78490;DHT22;67776;52.012;4.736;2023-07-08T16:12:55;32.89;45.28
78490;DHT22;67776;52.012;4.736;2023-07-08T16:15:30;32.94;46.77
78490;DHT22;67776;52.012;4.736;2023-07-08T16:17:57;33.22;45.93
78490;DHT22;67776;52.012;4.736;2023-07-08T16:20:24;33.57;46.53
78490;DHT22;67776;52.012;4.736;2023-07-08T16:22:50;33.68;42.01
78490;DHT22;67776;52.012;4.736;2023-07-08T16:25:18;33.67;45.68